createdAt,value
2018-11-20T00:00:57.333Z,1005.83
2018-11-20T00:01:57.316Z,1005.82
2018-11-20T00:02:57.355Z,1005.81
2018-11-20T00:03:57.298Z,1005.78
2018-11-20T00:04:57.294Z,1005.76
2018-11-20T00:05:57.252Z,1005.78
2018-11-20T00:06:57.297Z,1005.74
2018-11-20T00:07:57.233Z,1005.74
2018-11-20T00:08:57.233Z,1005.70
2018-11-20T00:09:57.212Z,1005.66
2018-11-20T00:10:57.196Z,1005.65
2018-11-20T00:11:57.204Z,1005.67
2018-11-20T00:12:57.218Z,1005.63
2018-11-20T00:13:57.180Z,1005.64
2018-11-20T00:14:57.158Z,1005.59
2018-11-20T00:15:57.139Z,1005.57
2018-11-20T00:16:57.152Z,1005.61
2018-11-20T00:17:57.129Z,1005.55
2018-11-20T00:18:57.268Z,1005.59
2018-11-20T00:19:57.109Z,1005.53
2018-11-20T00:20:57.105Z,1005.53
2018-11-20T00:21:57.081Z,1005.52
2018-11-20T00:22:57.085Z,1005.52
2018-11-20T00:23:57.082Z,1005.50
2018-11-20T00:24:57.111Z,1005.49
2018-11-20T00:25:57.027Z,1005.48
2018-11-20T00:26:57.029Z,1005.46
2018-11-20T00:27:57.007Z,1005.45
2018-11-20T00:28:57.028Z,1005.39
2018-11-20T00:29:56.999Z,1005.44
2018-11-20T00:30:56.970Z,1005.38
2018-11-20T00:31:56.962Z,1005.37
2018-11-20T00:32:56.976Z,1005.34
2018-11-20T00:33:56.939Z,1005.35
2018-11-20T00:34:56.963Z,1005.34
2018-11-20T00:35:56.912Z,1005.29
2018-11-20T00:36:56.901Z,1005.25
2018-11-20T00:37:56.891Z,1005.29
2018-11-20T00:38:56.881Z,1005.30
2018-11-20T00:39:56.882Z,1005.25
2018-11-20T00:40:56.865Z,1005.28
2018-11-20T00:41:56.847Z,1005.26
2018-11-20T00:42:56.836Z,1005.22
2018-11-20T00:43:56.837Z,1005.23
2018-11-20T00:44:56.841Z,1005.17
2018-11-20T00:45:56.828Z,1005.14
2018-11-20T00:46:56.788Z,1005.13
2018-11-20T00:47:56.795Z,1005.12
2018-11-20T00:48:56.770Z,1005.12
2018-11-20T00:49:56.791Z,1005.10
2018-11-20T00:50:56.749Z,1005.09
2018-11-20T00:51:56.741Z,1005.01
2018-11-20T00:52:56.721Z,1005.00
2018-11-20T00:53:56.721Z,1005.03
2018-11-20T00:54:56.702Z,1005.05
2018-11-20T00:55:56.698Z,1005.05
2018-11-20T00:56:56.683Z,1005.05
2018-11-20T00:57:56.670Z,1005.07
2018-11-20T00:58:56.663Z,1005.03
2018-11-20T00:59:56.652Z,1005.06
2018-11-20T01:00:56.648Z,1005.04
2018-11-20T01:01:56.630Z,1005.07
2018-11-20T01:02:56.722Z,1005.03
2018-11-20T01:03:56.616Z,1005.02
2018-11-20T01:04:56.592Z,1005.02
2018-11-20T01:05:56.588Z,1004.97
2018-11-20T01:06:56.579Z,1004.99
2018-11-20T01:07:56.563Z,1004.93
2018-11-20T01:08:56.574Z,1004.92
2018-11-20T01:09:56.539Z,1004.89
2018-11-20T01:10:56.589Z,1004.91
2018-11-20T01:11:56.514Z,1004.90
2018-11-20T01:12:56.530Z,1004.86
2018-11-20T01:13:56.489Z,1004.90
2018-11-20T01:14:56.479Z,1004.83
2018-11-20T01:15:56.511Z,1004.82
2018-11-20T01:16:56.470Z,1004.79
2018-11-20T01:17:56.447Z,1004.73
2018-11-20T01:18:56.433Z,1004.86
2018-11-20T01:19:56.425Z,1004.76
2018-11-20T01:20:56.438Z,1004.76
2018-11-20T01:21:56.408Z,1004.76
2018-11-20T01:22:56.390Z,1004.78
2018-11-20T01:23:56.380Z,1004.79
2018-11-20T01:24:56.363Z,1004.80
2018-11-20T01:25:56.371Z,1004.75
2018-11-20T01:26:56.337Z,1004.79
2018-11-20T01:27:56.340Z,1004.72
2018-11-20T01:28:56.316Z,1004.73
2018-11-20T01:29:56.301Z,1004.73
2018-11-20T01:30:56.318Z,1004.64
2018-11-20T01:31:56.297Z,1004.67
2018-11-20T01:33:01.169Z,1004.71
2018-11-20T01:33:56.291Z,1004.68
2018-11-20T01:34:56.273Z,1004.69
2018-11-20T01:35:56.241Z,1004.67
2018-11-20T01:36:56.240Z,1004.70
2018-11-20T01:37:56.228Z,1004.69
2018-11-20T01:38:56.213Z,1004.71
2018-11-20T01:39:56.193Z,1004.67
2018-11-20T01:40:56.183Z,1004.70
2018-11-20T01:41:56.175Z,1004.67
2018-11-20T01:42:56.159Z,1004.68
2018-11-20T01:43:56.144Z,1004.65
2018-11-20T01:44:56.148Z,1004.66
2018-11-20T01:45:56.126Z,1004.59
2018-11-20T01:46:56.126Z,1004.64
2018-11-20T01:47:56.104Z,1004.59
2018-11-20T01:48:56.104Z,1004.62
2018-11-20T01:49:56.075Z,1004.55
2018-11-20T01:50:56.068Z,1004.53
2018-11-20T01:51:56.066Z,1004.55
2018-11-20T01:52:56.041Z,1004.55
2018-11-20T01:53:56.042Z,1004.53
2018-11-20T01:54:56.057Z,1004.55
2018-11-20T01:55:56.011Z,1004.48
2018-11-20T01:56:56.011Z,1004.47
2018-11-20T01:57:55.984Z,1004.48
2018-11-20T01:58:55.975Z,1004.49
2018-11-20T01:59:55.965Z,1004.49
2018-11-20T02:00:55.951Z,1004.48
2018-11-20T02:01:55.960Z,1004.47
2018-11-20T02:02:56.003Z,1004.48
2018-11-20T02:03:55.972Z,1004.46
2018-11-20T02:04:55.908Z,1004.48
2018-11-20T02:05:55.903Z,1004.43
2018-11-20T02:06:55.898Z,1004.46
2018-11-20T02:07:55.878Z,1004.41
2018-11-20T02:08:55.859Z,1004.46
2018-11-20T02:09:55.849Z,1004.42
2018-11-20T02:10:55.842Z,1004.41
2018-11-20T02:11:55.850Z,1004.41
2018-11-20T02:12:55.814Z,1004.45
2018-11-20T02:13:55.812Z,1004.45
2018-11-20T02:14:55.792Z,1004.44
2018-11-20T02:15:55.789Z,1004.37
2018-11-20T02:16:55.773Z,1004.38
2018-11-20T02:17:55.786Z,1004.37
2018-11-20T02:18:55.752Z,1004.37
2018-11-20T02:19:55.756Z,1004.37
2018-11-20T02:20:55.727Z,1004.40
2018-11-20T02:21:55.715Z,1004.22
2018-11-20T02:22:55.719Z,1004.26
2018-11-20T02:23:55.692Z,1004.22
2018-11-20T02:24:55.678Z,1004.24
2018-11-20T02:25:55.688Z,1004.23
2018-11-20T02:26:55.695Z,1004.18
2018-11-20T02:27:55.669Z,1004.21
2018-11-20T02:28:55.639Z,1004.18
2018-11-20T02:29:55.625Z,1004.17
2018-11-20T02:30:55.636Z,1004.13
2018-11-20T02:31:55.604Z,1004.16
2018-11-20T02:32:55.754Z,1004.12
2018-11-20T02:33:55.580Z,1004.10
2018-11-20T02:34:55.611Z,1004.10
2018-11-20T02:35:55.565Z,1004.13
2018-11-20T02:36:55.554Z,1004.11
2018-11-20T02:37:55.562Z,1004.09
2018-11-20T02:38:55.520Z,1004.07
2018-11-20T02:39:55.528Z,1004.06
2018-11-20T02:40:55.513Z,1004.07
2018-11-20T02:41:55.517Z,1004.09
2018-11-20T02:42:55.495Z,1004.07
2018-11-20T02:43:55.463Z,1004.07
2018-11-20T02:44:55.470Z,1004.06
2018-11-20T02:45:55.496Z,1004.06
2018-11-20T02:46:55.458Z,1004.06
2018-11-20T02:47:55.421Z,1004.05
2018-11-20T02:48:55.417Z,1004.04
2018-11-20T02:49:55.400Z,1004.03
2018-11-20T02:50:55.390Z,1004.03
2018-11-20T02:51:55.395Z,1004.00
2018-11-20T02:52:55.370Z,1004.03
2018-11-20T02:53:55.373Z,1004.03
2018-11-20T02:54:55.351Z,1003.99
2018-11-20T02:55:55.328Z,1003.97
2018-11-20T02:56:55.337Z,1003.97
2018-11-20T02:57:55.307Z,1003.95
2018-11-20T02:58:55.305Z,1004.04
2018-11-20T02:59:55.283Z,1003.95
2018-11-20T03:00:55.273Z,1003.99
2018-11-20T03:01:55.270Z,1004.01
2018-11-20T03:02:55.278Z,1003.98
2018-11-20T03:03:55.315Z,1004.02
2018-11-20T03:04:55.229Z,1004.04
2018-11-20T03:05:55.224Z,1004.06
2018-11-20T03:06:55.228Z,1004.02
2018-11-20T03:07:55.216Z,1004.02
2018-11-20T03:08:55.195Z,1004.03
2018-11-20T03:09:55.171Z,1004.05
2018-11-20T03:10:55.169Z,1004.04
2018-11-20T03:11:55.147Z,1004.08
2018-11-20T03:12:55.154Z,1004.06
2018-11-20T03:13:55.141Z,1003.98
2018-11-20T03:14:55.123Z,1004.01
2018-11-20T03:15:55.101Z,1003.98
2018-11-20T03:16:55.092Z,1004.00
2018-11-20T03:17:55.086Z,1003.98
2018-11-20T03:18:55.089Z,1003.93
2018-11-20T03:19:55.071Z,1003.96
2018-11-20T03:20:55.044Z,1004.00
2018-11-20T03:21:55.059Z,1003.92
2018-11-20T03:22:55.023Z,1003.91
2018-11-20T03:23:55.018Z,1003.87
2018-11-20T03:24:55.013Z,1003.88
2018-11-20T03:25:55.010Z,1003.87
2018-11-20T03:26:55.080Z,1003.84
2018-11-20T03:27:54.992Z,1003.83
2018-11-20T03:28:54.969Z,1003.77
2018-11-20T03:29:54.945Z,1003.72
2018-11-20T03:30:54.942Z,1003.69
2018-11-20T03:31:54.952Z,1003.64
2018-11-20T03:32:55.035Z,1003.68
2018-11-20T03:33:54.900Z,1003.64
2018-11-20T03:34:54.906Z,1003.65
2018-11-20T03:35:54.921Z,1003.59
2018-11-20T03:36:54.883Z,1003.54
2018-11-20T03:37:54.894Z,1003.50
2018-11-20T03:38:54.843Z,1003.54
2018-11-20T03:39:54.841Z,1003.53
2018-11-20T03:40:54.820Z,1003.51
2018-11-20T03:41:54.858Z,1003.48
2018-11-20T03:42:54.821Z,1003.47
2018-11-20T03:43:54.787Z,1003.44
2018-11-20T03:44:54.786Z,1003.51
2018-11-20T03:45:54.763Z,1003.52
2018-11-20T03:46:54.758Z,1003.50
2018-11-20T03:47:54.788Z,1003.54
2018-11-20T03:48:54.780Z,1003.52
2018-11-20T03:49:54.730Z,1003.51
2018-11-20T03:50:54.707Z,1003.57
2018-11-20T03:51:54.701Z,1003.60
2018-11-20T03:52:54.694Z,1003.46
2018-11-20T03:53:54.784Z,1003.55
2018-11-20T03:54:54.691Z,1003.42
2018-11-20T03:55:54.648Z,1003.50
2018-11-20T03:56:54.642Z,1003.46
2018-11-20T03:57:54.635Z,1003.51
2018-11-20T03:58:54.859Z,1003.50
2018-11-20T03:59:54.625Z,1003.49
2018-11-20T04:00:54.599Z,1003.50
2018-11-20T04:01:54.673Z,1003.51
2018-11-20T04:02:54.662Z,1003.51
2018-11-20T04:03:54.569Z,1003.52
2018-11-20T04:04:54.550Z,1003.52
2018-11-20T04:05:54.540Z,1003.52
2018-11-20T04:06:54.529Z,1003.47
2018-11-20T04:07:54.522Z,1003.46
2018-11-20T04:08:54.509Z,1003.42
2018-11-20T04:09:54.523Z,1003.40
2018-11-20T04:10:54.497Z,1003.39
2018-11-20T04:11:54.509Z,1003.40
2018-11-20T04:12:54.459Z,1003.39
2018-11-20T04:13:54.452Z,1003.41
2018-11-20T04:14:54.468Z,1003.43
2018-11-20T04:15:54.436Z,1003.40
2018-11-20T04:16:54.431Z,1003.36
2018-11-20T04:17:54.472Z,1003.34
2018-11-20T04:18:54.395Z,1003.30
2018-11-20T04:19:54.405Z,1003.40
2018-11-20T04:20:54.379Z,1003.31
2018-11-20T04:21:54.358Z,1003.35
2018-11-20T04:22:54.362Z,1003.29
2018-11-20T04:23:54.332Z,1003.33
2018-11-20T04:24:54.322Z,1003.27
2018-11-20T04:25:54.329Z,1003.27
2018-11-20T04:26:54.298Z,1003.27
2018-11-20T04:27:54.292Z,1003.26
2018-11-20T04:28:54.292Z,1003.27
2018-11-20T04:29:54.293Z,1003.27
2018-11-20T04:30:54.268Z,1003.27
2018-11-20T04:31:54.248Z,1003.25
2018-11-20T04:32:54.305Z,1003.21
2018-11-20T04:33:54.221Z,1003.19
2018-11-20T04:34:54.211Z,1003.20
2018-11-20T04:35:54.232Z,1003.23
2018-11-20T04:36:54.189Z,1003.20
2018-11-20T04:37:54.178Z,1003.22
2018-11-20T04:38:54.186Z,1003.23
2018-11-20T04:39:54.180Z,1003.18
2018-11-20T04:40:54.224Z,1003.17
2018-11-20T04:41:54.128Z,1003.14
2018-11-20T04:42:54.132Z,1003.20
2018-11-20T04:43:54.163Z,1003.14
2018-11-20T04:44:54.103Z,1003.20
2018-11-20T04:45:54.156Z,1003.18
2018-11-20T04:46:54.102Z,1003.12
2018-11-20T04:47:54.062Z,1003.12
2018-11-20T04:48:54.052Z,1003.14
2018-11-20T04:49:54.153Z,1003.12
2018-11-20T04:50:54.044Z,1003.14
2018-11-20T04:51:54.019Z,1003.13
2018-11-20T04:52:54.069Z,1003.11
2018-11-20T04:53:53.997Z,1003.18
2018-11-20T04:54:53.985Z,1003.11
2018-11-20T04:55:53.983Z,1003.11
2018-11-20T04:56:53.986Z,1003.16
2018-11-20T04:57:53.947Z,1003.14
2018-11-20T04:58:53.937Z,1003.11
2018-11-20T04:59:53.926Z,1003.09
2018-11-20T05:00:53.928Z,1003.17
2018-11-20T05:01:53.911Z,1003.16
2018-11-20T05:02:53.955Z,1003.10
2018-11-20T05:03:53.883Z,1003.11
2018-11-20T05:04:53.875Z,1003.05
2018-11-20T05:05:53.885Z,1003.12
2018-11-20T05:06:53.934Z,1003.09
2018-11-20T05:07:53.848Z,1003.05
2018-11-20T05:08:53.825Z,1003.04
2018-11-20T05:09:53.816Z,1003.05
2018-11-20T05:10:53.799Z,1003.09
2018-11-20T05:11:53.802Z,1003.00
2018-11-20T05:12:53.780Z,1003.04
2018-11-20T05:13:53.783Z,1003.04
2018-11-20T05:14:53.761Z,1003.01
2018-11-20T05:15:53.762Z,1002.94
2018-11-20T05:16:53.751Z,1003.04
2018-11-20T05:17:53.722Z,1002.91
2018-11-20T05:18:53.716Z,1003.04
2018-11-20T05:19:53.702Z,1003.02
2018-11-20T05:20:53.690Z,1002.96
2018-11-20T05:21:53.685Z,1002.92
2018-11-20T05:22:53.663Z,1002.95
2018-11-20T05:23:53.657Z,1002.91
2018-11-20T05:24:54.032Z,1002.86
2018-11-20T05:25:53.629Z,1002.88
2018-11-20T05:26:53.631Z,1002.84
2018-11-20T05:27:53.674Z,1002.78
2018-11-20T05:28:53.601Z,1002.82
2018-11-20T05:29:53.588Z,1002.81
2018-11-20T05:30:53.593Z,1002.81
2018-11-20T05:31:53.583Z,1002.79
2018-11-20T05:32:53.607Z,1002.79
2018-11-20T05:33:53.559Z,1002.79
2018-11-20T05:34:53.528Z,1002.82
2018-11-20T05:35:53.526Z,1002.75
2018-11-20T05:36:53.530Z,1002.70
2018-11-20T05:37:53.498Z,1002.78
2018-11-20T05:38:53.491Z,1002.75
2018-11-20T05:39:53.474Z,1002.77
2018-11-20T05:40:53.465Z,1002.76
2018-11-20T05:41:53.507Z,1002.73
2018-11-20T05:42:53.445Z,1002.74
2018-11-20T05:43:53.435Z,1002.73
2018-11-20T05:44:53.412Z,1002.74
2018-11-20T05:45:53.401Z,1002.62
2018-11-20T05:46:53.589Z,1002.66
2018-11-20T05:47:53.400Z,1002.66
2018-11-20T05:48:53.373Z,1002.61
2018-11-20T05:49:53.390Z,1002.70
2018-11-20T05:50:53.350Z,1002.59
2018-11-20T05:51:53.335Z,1002.55
2018-11-20T05:52:53.346Z,1002.53
2018-11-20T05:53:53.315Z,1002.56
2018-11-20T05:54:53.316Z,1002.59
2018-11-20T05:55:53.380Z,1002.55
2018-11-20T05:56:53.358Z,1002.56
2018-11-20T05:57:53.352Z,1002.54
2018-11-20T05:58:53.292Z,1002.55
2018-11-20T05:59:53.244Z,1002.56
2018-11-20T06:00:53.243Z,1002.57
2018-11-20T06:01:53.221Z,1002.58
2018-11-20T06:02:53.326Z,1002.57
2018-11-20T06:03:53.199Z,1002.59
2018-11-20T06:04:53.213Z,1002.57
2018-11-20T06:05:53.214Z,1002.54
2018-11-20T06:06:53.167Z,1002.55
2018-11-20T06:07:53.161Z,1002.50
2018-11-20T06:08:53.142Z,1002.56
2018-11-20T06:09:53.138Z,1002.57
2018-11-20T06:10:53.126Z,1002.60
2018-11-20T06:11:53.134Z,1002.57
2018-11-20T06:12:53.248Z,1002.56
2018-11-20T06:13:53.085Z,1002.57
2018-11-20T06:14:53.075Z,1002.55
2018-11-20T06:15:53.088Z,1002.54
2018-11-20T06:16:53.050Z,1002.56
2018-11-20T06:17:53.052Z,1002.53
2018-11-20T06:18:53.079Z,1002.48
2018-11-20T06:19:53.036Z,1002.49
2018-11-20T06:20:53.009Z,1002.50
2018-11-20T06:21:53.004Z,1002.53
2018-11-20T06:22:53.022Z,1002.50
2018-11-20T06:23:52.979Z,1002.43
2018-11-20T06:24:52.967Z,1002.49
2018-11-20T06:25:52.958Z,1002.48
2018-11-20T06:26:52.951Z,1002.44
2018-11-20T06:27:52.931Z,1002.45
2018-11-20T06:28:53.042Z,1002.42
2018-11-20T06:29:52.933Z,1002.40
2018-11-20T06:30:52.937Z,1002.46
2018-11-20T06:31:52.971Z,1002.39
2018-11-20T06:32:53.001Z,1002.40
2018-11-20T06:33:52.881Z,1002.39
2018-11-20T06:34:52.871Z,1002.43
2018-11-20T06:35:52.836Z,1002.45
2018-11-20T06:36:52.838Z,1002.46
2018-11-20T06:37:52.828Z,1002.44
2018-11-20T06:38:52.819Z,1002.40
2018-11-20T06:39:52.823Z,1002.45
2018-11-20T06:40:52.831Z,1002.42
2018-11-20T06:41:52.769Z,1002.47
2018-11-20T06:42:52.759Z,1002.43
2018-11-20T06:43:52.833Z,1002.44
2018-11-20T06:44:52.743Z,1002.51
2018-11-20T06:45:52.730Z,1002.45
2018-11-20T06:46:52.734Z,1002.47
2018-11-20T06:47:52.726Z,1002.49
2018-11-20T06:48:52.707Z,1002.49
2018-11-20T06:49:52.700Z,1002.44
2018-11-20T06:50:52.688Z,1002.46
2018-11-20T06:51:52.656Z,1002.46
2018-11-20T06:52:52.727Z,1002.47
2018-11-20T06:53:52.669Z,1002.41
2018-11-20T06:54:52.640Z,1002.46
2018-11-20T06:55:52.619Z,1002.47
2018-11-20T06:56:52.633Z,1002.45
2018-11-20T06:57:53.113Z,1002.47
2018-11-20T06:58:52.743Z,1002.45
2018-11-20T06:59:52.579Z,1002.50
2018-11-20T07:00:52.556Z,1002.46
2018-11-20T07:01:52.550Z,1002.50
2018-11-20T07:02:52.566Z,1002.54
2018-11-20T07:03:52.561Z,1002.51
2018-11-20T07:04:52.526Z,1002.50
2018-11-20T07:05:52.506Z,1002.54
2018-11-20T07:06:52.563Z,1002.59
2018-11-20T07:07:52.750Z,1002.56
2018-11-20T07:08:52.616Z,1002.49
2018-11-20T07:09:52.712Z,1002.56
2018-11-20T07:10:53.171Z,1002.51
2018-11-20T07:11:52.431Z,1002.50
2018-11-20T07:12:52.424Z,1002.54
2018-11-20T07:13:52.418Z,1002.49
2018-11-20T07:14:52.447Z,1002.56
2018-11-20T07:15:52.707Z,1002.47
2018-11-20T07:16:52.680Z,1002.54
2018-11-20T07:17:52.599Z,1002.59
2018-11-20T07:18:52.387Z,1002.62
2018-11-20T07:19:52.358Z,1002.62
2018-11-20T07:20:52.378Z,1002.61
2018-11-20T07:21:52.392Z,1002.60
2018-11-20T07:22:52.341Z,1002.58
2018-11-20T07:23:52.296Z,1002.58
2018-11-20T07:24:52.431Z,1002.56
2018-11-20T07:25:52.277Z,1002.59
2018-11-20T07:26:52.273Z,1002.55
2018-11-20T07:27:52.279Z,1002.53
2018-11-20T07:28:52.246Z,1002.53
2018-11-20T07:29:52.249Z,1002.53
2018-11-20T07:30:52.434Z,1002.56
2018-11-20T07:31:52.576Z,1002.54
2018-11-20T07:32:52.218Z,1002.58
2018-11-20T07:33:52.191Z,1002.56
2018-11-20T07:34:52.716Z,1002.54
2018-11-20T07:35:52.193Z,1002.58
2018-11-20T07:36:52.332Z,1002.58
2018-11-20T07:37:52.190Z,1002.59
2018-11-20T07:38:52.128Z,1002.61
2018-11-20T07:39:52.242Z,1002.59
2018-11-20T07:40:52.120Z,1002.52
2018-11-20T07:41:52.221Z,1002.57
2018-11-20T07:42:52.125Z,1002.59
2018-11-20T07:43:52.202Z,1002.59
2018-11-20T07:44:52.089Z,1002.57
2018-11-20T07:45:52.096Z,1002.57
2018-11-20T07:46:52.098Z,1002.49
2018-11-20T07:47:52.033Z,1002.49
2018-11-20T07:48:52.018Z,1002.49
2018-11-20T07:49:52.015Z,1002.44
2018-11-20T07:50:52.035Z,1002.40
2018-11-20T07:51:51.995Z,1002.36
2018-11-20T07:52:52.010Z,1002.32
2018-11-20T07:53:51.960Z,1002.38
2018-11-20T07:54:52.032Z,1002.35
2018-11-20T07:55:52.147Z,1002.35
2018-11-20T07:56:52.071Z,1002.31
2018-11-20T07:57:51.932Z,1002.34
2018-11-20T07:58:51.931Z,1002.36
2018-11-20T07:59:51.933Z,1002.33
2018-11-20T08:00:51.899Z,1002.32
2018-11-20T08:01:51.881Z,1002.28
2018-11-20T08:02:51.958Z,1002.33
2018-11-20T08:03:51.897Z,1002.36
2018-11-20T08:04:51.877Z,1002.39
2018-11-20T08:05:51.974Z,1002.36
2018-11-20T08:06:51.820Z,1002.35
2018-11-20T08:07:51.948Z,1002.34
2018-11-20T10:15:26.725Z,1001.98
2018-11-20T10:16:26.708Z,1001.96
2018-11-20T10:17:26.736Z,1001.93
2018-11-20T10:18:26.716Z,1001.92
2018-11-20T10:19:26.677Z,1001.86
2018-11-20T10:20:26.673Z,1001.93
2018-11-20T10:21:26.772Z,1001.91
2018-11-20T10:22:26.686Z,1001.87
2018-11-20T10:23:26.748Z,1001.80
2018-11-20T10:24:26.635Z,1001.82
2018-11-20T10:25:26.650Z,1001.80
2018-11-20T10:26:26.661Z,1001.80
2018-11-20T10:27:26.677Z,1001.76
2018-11-20T10:28:26.588Z,1001.79
2018-11-20T10:29:26.565Z,1001.81
2018-11-20T10:30:26.551Z,1001.77
2018-11-20T10:31:26.539Z,1001.72
2018-11-20T10:32:26.663Z,1001.73
2018-11-20T10:33:26.558Z,1001.71
2018-11-20T10:34:26.519Z,1001.72
2018-11-20T10:35:26.511Z,1001.68
2018-11-20T10:36:26.498Z,1001.67
2018-11-20T10:37:26.475Z,1001.69
2018-11-20T10:38:26.480Z,1001.68
2018-11-20T10:39:26.481Z,1001.65
2018-11-20T10:40:26.481Z,1001.62
2018-11-20T10:41:26.433Z,1001.65
2018-11-20T10:42:26.415Z,1001.59
2018-11-20T10:43:26.421Z,1001.61
2018-11-20T10:44:26.406Z,1001.59
2018-11-20T10:45:26.410Z,1001.58
2018-11-20T10:46:26.448Z,1001.61
2018-11-20T10:47:26.373Z,1001.57
2018-11-20T10:48:26.351Z,1001.60
2018-11-20T10:49:26.353Z,1001.50
2018-11-20T10:50:26.407Z,1001.51
2018-11-20T10:51:26.326Z,1001.49
2018-11-20T10:52:26.495Z,1001.51
2018-11-20T10:53:26.300Z,1001.49
2018-11-20T10:54:26.294Z,1001.52
2018-11-20T10:55:26.319Z,1001.46
2018-11-20T10:56:26.280Z,1001.48
2018-11-20T10:57:26.246Z,1001.49
2018-11-20T10:58:26.864Z,1001.49
2018-11-20T10:59:26.251Z,1001.51
2018-11-20T11:00:26.234Z,1001.51
2018-11-20T11:01:26.234Z,1001.45
2018-11-20T11:02:26.269Z,1001.42
2018-11-20T11:03:26.267Z,1001.41
2018-11-20T11:04:26.298Z,1001.33
2018-11-20T11:05:26.173Z,1001.36
2018-11-20T11:06:26.238Z,1001.36
2018-11-20T11:07:26.223Z,1001.39
2018-11-20T11:08:26.130Z,1001.34
2018-11-20T11:09:26.121Z,1001.31
2018-11-20T11:10:26.174Z,1001.29
2018-11-20T11:11:26.169Z,1001.31
2018-11-20T11:12:26.146Z,1001.24
2018-11-20T11:13:26.090Z,1001.25
2018-11-20T11:14:26.091Z,1001.21
2018-11-20T11:15:26.087Z,1001.21
2018-11-20T11:16:26.045Z,1001.11
2018-11-20T11:17:26.026Z,1001.18
2018-11-20T11:18:26.138Z,1001.22
2018-11-20T11:19:26.048Z,1001.19
2018-11-20T11:20:26.094Z,1001.22
2018-11-20T11:21:26.056Z,1001.25
2018-11-20T11:22:25.967Z,1001.22
2018-11-20T11:23:25.993Z,1001.22
2018-11-20T11:24:25.952Z,1001.25
2018-11-20T11:25:25.946Z,1001.18
2018-11-20T11:26:26.042Z,1001.22
2018-11-20T11:27:25.921Z,1001.17
2018-11-20T11:28:25.902Z,1001.10
2018-11-20T11:29:25.908Z,1001.11
2018-11-20T11:30:25.874Z,1001.13
2018-11-20T11:31:25.905Z,1001.14
2018-11-20T11:32:25.898Z,1001.17
2018-11-20T11:33:28.801Z,1001.15
2018-11-20T11:34:25.849Z,1001.15
2018-11-20T11:35:25.822Z,1001.13
2018-11-20T11:36:25.806Z,1001.18
2018-11-20T11:37:25.884Z,1001.08
2018-11-20T11:38:25.785Z,1001.11
2018-11-20T11:39:25.794Z,1001.10
2018-11-20T11:40:25.762Z,1001.11
2018-11-20T11:41:25.758Z,1001.10
2018-11-20T11:42:25.746Z,1001.09
2018-11-20T11:43:28.134Z,1001.10
2018-11-20T11:44:25.883Z,1001.08
2018-11-20T11:45:25.755Z,1001.14
2018-11-20T11:46:25.729Z,1001.15
2018-11-20T11:47:25.762Z,1001.09
2018-11-20T11:48:25.677Z,1001.13
2018-11-20T11:49:25.676Z,1001.10
2018-11-20T11:50:25.665Z,1001.16
2018-11-20T11:51:25.690Z,1001.12
2018-11-20T11:52:25.650Z,1001.09
2018-11-20T11:53:25.687Z,1001.14
2018-11-20T11:54:25.638Z,1001.11
2018-11-20T11:55:25.603Z,1001.10
2018-11-20T11:56:25.622Z,1001.09
2018-11-20T11:57:25.594Z,1001.14
2018-11-20T11:58:25.804Z,1001.10
2018-11-20T11:59:25.561Z,1001.13
2018-11-20T12:00:25.545Z,1001.08
2018-11-20T12:01:25.654Z,1001.07
2018-11-20T12:03:25.510Z,1001.03
2018-11-20T12:04:25.514Z,1001.01
2018-11-20T12:05:25.482Z,1001.00
2018-11-20T12:06:25.491Z,1001.00
2018-11-20T12:07:25.457Z,1001.01
2018-11-20T12:08:25.463Z,1000.97
2018-11-20T12:09:25.465Z,1000.99
2018-11-20T12:10:25.427Z,1001.01
2018-11-20T12:11:25.468Z,1000.95
2018-11-20T12:12:25.410Z,1000.98
2018-11-20T12:13:25.406Z,1000.94
2018-11-20T12:14:25.404Z,1000.94
2018-11-20T12:15:25.390Z,1000.93
2018-11-20T12:16:25.389Z,1000.93
2018-11-20T12:17:25.399Z,1000.96
2018-11-20T12:18:25.348Z,1000.91
2018-11-20T12:19:25.518Z,1000.91
2018-11-20T12:20:25.314Z,1000.92
2018-11-20T12:21:25.301Z,1000.93
2018-11-20T12:22:25.333Z,1000.88
2018-11-20T12:23:25.317Z,1000.89
2018-11-20T12:24:27.313Z,1000.88
2018-11-20T12:25:25.307Z,1000.90
2018-11-20T12:26:25.245Z,1000.82
2018-11-20T12:27:25.264Z,1000.89
2018-11-20T12:28:25.253Z,1000.91
2018-11-20T12:29:25.218Z,1000.83
2018-11-20T12:30:25.203Z,1000.88
2018-11-20T12:31:25.197Z,1000.85
2018-11-20T12:32:26.693Z,1000.86
2018-11-20T12:33:25.920Z,1000.85
2018-11-20T12:34:25.190Z,1000.88
2018-11-20T12:35:33.301Z,1000.89
2018-11-20T12:36:25.144Z,1000.88
2018-11-20T12:37:25.151Z,1000.91
2018-11-20T12:38:25.154Z,1000.88
2018-11-20T12:39:25.125Z,1000.90
2018-11-20T12:40:25.111Z,1000.89
2018-11-20T12:41:26.681Z,1000.90
2018-11-20T12:42:25.105Z,1000.90
2018-11-20T12:43:25.190Z,1000.93
2018-11-20T12:44:25.042Z,1000.92
2018-11-20T12:45:25.110Z,1000.95
2018-11-20T12:46:25.122Z,1000.86
2018-11-20T12:47:25.035Z,1000.88
2018-11-20T12:48:25.004Z,1000.86
2018-11-20T12:49:25.133Z,1000.96
2018-11-20T12:50:26.243Z,1000.95
2018-11-20T12:51:25.488Z,1000.96
2018-11-20T12:52:24.963Z,1001.02
2018-11-20T12:53:24.947Z,1001.02
2018-11-20T12:54:24.927Z,1000.97
2018-11-20T12:55:24.948Z,1000.94
2018-11-20T12:56:24.945Z,1000.93
2018-11-20T12:57:24.942Z,1000.94
2018-11-20T12:58:24.938Z,1000.96
2018-11-20T12:59:24.939Z,1000.93
2018-11-20T13:00:24.862Z,1000.94
2018-11-20T13:01:24.883Z,1000.89
2018-11-20T13:02:24.942Z,1000.93
2018-11-20T13:03:24.847Z,1000.93
2018-11-20T13:04:24.872Z,1000.95
2018-11-20T13:05:24.813Z,1000.93
2018-11-20T13:06:24.835Z,1000.87
2018-11-20T13:07:24.897Z,1000.87
2018-11-20T13:08:30.909Z,1000.84
2018-11-20T13:09:24.812Z,1000.83
2018-11-20T13:10:24.802Z,1000.85
2018-11-20T13:11:24.749Z,1000.89
2018-11-20T13:12:24.726Z,1000.88
2018-11-20T13:13:24.736Z,1000.83
2018-11-20T13:14:24.712Z,1000.86
2018-11-20T13:15:24.716Z,1000.83
2018-11-20T13:16:24.692Z,1000.79
2018-11-20T13:17:24.680Z,1000.82
2018-11-20T13:18:24.733Z,1000.85
2018-11-20T13:19:25.441Z,1000.88
2018-11-20T13:20:24.659Z,1000.82
2018-11-20T13:21:24.671Z,1000.86
2018-11-20T13:22:24.616Z,1000.88
2018-11-20T13:23:25.587Z,1000.90
2018-11-20T13:24:24.595Z,1000.91
2018-11-20T13:25:24.587Z,1000.89
2018-11-20T13:26:24.621Z,1000.87
2018-11-20T13:27:25.424Z,1000.82
2018-11-20T13:28:24.547Z,1000.82
2018-11-20T13:29:24.552Z,1000.83
2018-11-20T13:30:24.590Z,1000.82
2018-11-20T13:31:24.521Z,1000.85
2018-11-20T13:32:24.584Z,1000.86
2018-11-20T13:33:25.660Z,1000.87
2018-11-20T13:34:25.269Z,1000.84
2018-11-20T13:35:24.639Z,1000.83
2018-11-20T13:36:24.778Z,1000.79
2018-11-20T13:37:24.499Z,1000.79
2018-11-20T13:38:24.473Z,1000.76
2018-11-20T13:39:24.460Z,1000.83
2018-11-20T13:40:24.419Z,1000.78
2018-11-20T13:41:24.419Z,1000.80
2018-11-20T13:42:24.404Z,1000.78
2018-11-20T13:43:24.447Z,1000.83
2018-11-20T13:44:24.373Z,1000.82
2018-11-20T13:45:24.389Z,1000.75
2018-11-20T13:46:24.351Z,1000.71
2018-11-20T13:47:24.569Z,1000.74
2018-11-20T13:48:24.337Z,1000.71
2018-11-20T13:49:24.318Z,1000.71
2018-11-20T13:50:24.386Z,1000.71
2018-11-20T13:51:24.323Z,1000.70
2018-11-20T13:52:24.306Z,1000.66
2018-11-20T13:53:24.287Z,1000.67
2018-11-20T13:54:24.269Z,1000.66
2018-11-20T13:55:24.799Z,1000.69
2018-11-20T13:56:24.253Z,1000.68
2018-11-20T13:57:24.311Z,1000.65
2018-11-20T13:58:24.228Z,1000.61
2018-11-20T13:59:24.206Z,1000.61
2018-11-20T14:00:24.205Z,1000.66
2018-11-20T14:01:24.184Z,1000.56
2018-11-20T14:02:24.227Z,1000.60
2018-11-20T14:03:24.193Z,1000.56
2018-11-20T14:04:24.161Z,1000.56
2018-11-20T14:05:24.146Z,1000.58
2018-11-20T14:06:24.172Z,1000.51
2018-11-20T14:07:24.143Z,1000.54
2018-11-20T14:08:24.100Z,1000.52
2018-11-20T14:09:24.167Z,1000.51
2018-11-20T14:10:24.111Z,1000.51
2018-11-20T14:11:24.083Z,1000.51
2018-11-20T14:12:24.079Z,1000.48
2018-11-20T14:13:24.072Z,1000.48